sensor_id;sensor_type;location;lat;lon;timestamp;temperature;humidity
20231;DHT22;10274;49.022;9.338;2022-12-05T00:00:08;4.20;99.90
20231;DHT22;10274;49.022;9.338;2022-12-05T00:02:36;3.60;99.90
20231;DHT22;10274;49.022;9.338;2022-12-05T00:05:03;3.60;99.90
20231;DHT22;10274;49.022;9.338;2022-12-05T00:07:30;3.60;99.90
20231;DHT22;10274;49.022;9.338;2022-12-05T00:09:57;3.50;99.90
20231;DHT22;10274;49.022;9.338;2022-12-05T00:12:24;3.50;99.90
20231;DHT22;10274;49.022;9.338;2022-12-05T00:14:50;3.60;99.90
20231;DHT22;10274;49.022;9.338;2022-12-05T00:17:17;3.60;99.90
20231;DHT22;10274;49.022;9.338;2022-12-05T00:19:45;3.60;99.90
20231;DHT22;10274;49.022;9.338;2022-12-05T00:22:12;3.50;99.90
20231;DHT22;10274;49.022;9.338;2022-12-05T00:24:39;3.50;99.90
20231;DHT22;10274;49.022;9.338;2022-12-05T00:27:06;3.50;99.90
20231;DHT22;10274;49.022;9.338;2022-12-05T00:29:32;3.50;99.90
20231;DHT22;10274;49.022;9.338;2022-12-05T00:31:59;3.50;99.90
20231;DHT22;10274;49.022;9.338;2022-12-05T00:34:26;3.50;99.90
20231;DHT22;10274;49.022;9.338;2022-12-05T00:36:54;3.50;99.90
20231;DHT22;10274;49.022;9.338;2022-12-05T00:39:21;3.50;99.90
20231;DHT22;10274;49.022;9.338;2022-12-05T00:41:47;3.50;99.90
20231;DHT22;10274;49.022;9.338;2022-12-05T00:44:14;3.50;99.90
20231;DHT22;10274;49.022;9.338;2022-12-05T00:46:41;3.60;99.90
20231;DHT22;10274;49.022;9.338;2022-12-05T00:49:09;3.60;99.90
20231;DHT22;10274;49.022;9.338;2022-12-05T00:51:38;3.60;99.90
20231;DHT22;10274;49.022;9.338;2022-12-05T00:54:08;3.60;99.90
20231;DHT22;10274;49.022;9.338;2022-12-05T00:56:35;3.50;99.90
20231;DHT22;10274;49.022;9.338;2022-12-05T00:59:02;3.50;99.90
20231;DHT22;10274;49.022;9.338;2022-12-05T01:01:31;3.60;99.90
20231;DHT22;10274;49.022;9.338;2022-12-05T01:04:03;3.60;99.90
20231;DHT22;10274;49.022;9.338;2022-12-05T01:06:30;3.60;99.90
20231;DHT22;10274;49.022;9.338;2022-12-05T01:08:57;3.60;99.90
20231;DHT22;10274;49.022;9.338;2022-12-05T01:11:26;3.60;99.90
20231;DHT22;10274;49.022;9.338;2022-12-05T01:13:53;3.60;99.90
20231;DHT22;10274;49.022;9.338;2022-12-05T01:16:22;3.70;99.90
20231;DHT22;10274;49.022;9.338;2022-12-05T01:18:50;3.60;99.90
20231;DHT22;10274;49.022;9.338;2022-12-05T01:21:17;3.60;99.90
20231;DHT22;10274;49.022;9.338;2022-12-05T01:23:44;3.60;99.90
20231;DHT22;10274;49.022;9.338;2022-12-05T01:26:12;3.50;99.90
20231;DHT22;10274;49.022;9.338;2022-12-05T01:28:41;3.60;99.90
20231;DHT22;10274;49.022;9.338;2022-12-05T01:31:17;3.60;99.90
20231;DHT22;10274;49.022;9.338;2022-12-05T01:33:46;3.60;99.90
20231;DHT22;10274;49.022;9.338;2022-12-05T01:36:13;3.60;99.90
20231;DHT22;10274;49.022;9.338;2022-12-05T01:38:41;3.60;99.90
20231;DHT22;10274;49.022;9.338;2022-12-05T01:41:11;3.60;99.90
20231;DHT22;10274;49.022;9.338;2022-12-05T01:43:54;3.50;99.90
20231;DHT22;10274;49.022;9.338;2022-12-05T01:46:21;3.50;99.90
20231;DHT22;10274;49.022;9.338;2022-12-05T01:48:49;3.50;99.90
20231;DHT22;10274;49.022;9.338;2022-12-05T01:51:15;3.50;99.90
20231;DHT22;10274;49.022;9.338;2022-12-05T01:53:42;3.50;99.90
20231;DHT22;10274;49.022;9.338;2022-12-05T01:56:10;3.40;99.90
20231;DHT22;10274;49.022;9.338;2022-12-05T01:58:37;3.40;99.90
20231;DHT22;10274;49.022;9.338;2022-12-05T02:01:08;3.40;99.90
20231;DHT22;10274;49.022;9.338;2022-12-05T02:03:36;3.40;99.90
20231;DHT22;10274;49.022;9.338;2022-12-05T02:06:04;3.40;99.90
20231;DHT22;10274;49.022;9.338;2022-12-05T02:08:31;3.40;99.90
20231;DHT22;10274;49.022;9.338;2022-12-05T02:10:58;3.40;99.90
20231;DHT22;10274;49.022;9.338;2022-12-05T02:13:37;3.40;99.90
20231;DHT22;10274;49.022;9.338;2022-12-05T02:16:16;3.40;99.90
20231;DHT22;10274;49.022;9.338;2022-12-05T02:18:55;3.40;99.90
20231;DHT22;10274;49.022;9.338;2022-12-05T02:21:59;3.40;99.90
20231;DHT22;10274;49.022;9.338;2022-12-05T02:25:00;3.40;99.90
20231;DHT22;10274;49.022;9.338;2022-12-05T02:27:50;3.30;99.90
20231;DHT22;10274;49.022;9.338;2022-12-05T02:30:24;3.30;99.90
20231;DHT22;10274;49.022;9.338;2022-12-05T02:33:02;3.20;99.90
20231;DHT22;10274;49.022;9.338;2022-12-05T02:35:39;3.30;99.90
20231;DHT22;10274;49.022;9.338;2022-12-05T02:38:15;3.20;99.90
20231;DHT22;10274;49.022;9.338;2022-12-05T02:40:50;3.20;99.90
20231;DHT22;10274;49.022;9.338;2022-12-05T02:43:24;3.20;99.90
20231;DHT22;10274;49.022;9.338;2022-12-05T02:45:58;3.20;99.90
20231;DHT22;10274;49.022;9.338;2022-12-05T02:48:27;3.10;99.90
20231;DHT22;10274;49.022;9.338;2022-12-05T02:50:56;3.10;99.90
20231;DHT22;10274;49.022;9.338;2022-12-05T02:53:26;3.10;99.90
20231;DHT22;10274;49.022;9.338;2022-12-05T02:55:54;3.10;99.90
20231;DHT22;10274;49.022;9.338;2022-12-05T02:58:24;3.00;99.90
20231;DHT22;10274;49.022;9.338;2022-12-05T03:00:56;3.00;99.90
20231;DHT22;10274;49.022;9.338;2022-12-05T03:03:24;3.10;99.90
20231;DHT22;10274;49.022;9.338;2022-12-05T03:05:57;3.10;99.90
20231;DHT22;10274;49.022;9.338;2022-12-05T03:08:28;3.10;99.90
20231;DHT22;10274;49.022;9.338;2022-12-05T03:10:57;3.20;99.90
20231;DHT22;10274;49.022;9.338;2022-12-05T03:13:28;3.20;99.90
20231;DHT22;10274;49.022;9.338;2022-12-05T03:16:02;3.20;99.90
20231;DHT22;10274;49.022;9.338;2022-12-05T03:18:35;3.20;99.90
20231;DHT22;10274;49.022;9.338;2022-12-05T03:21:07;3.30;99.90
20231;DHT22;10274;49.022;9.338;2022-12-05T03:23:38;3.30;99.90
20231;DHT22;10274;49.022;9.338;2022-12-05T03:26:17;3.30;99.90
20231;DHT22;10274;49.022;9.338;2022-12-05T03:28:55;3.30;99.90
20231;DHT22;10274;49.022;9.338;2022-12-05T03:31:32;3.30;99.90
20231;DHT22;10274;49.022;9.338;2022-12-05T03:34:06;3.30;99.90
20231;DHT22;10274;49.022;9.338;2022-12-05T03:36:38;3.30;99.90
20231;DHT22;10274;49.022;9.338;2022-12-05T03:39:09;3.30;99.90
20231;DHT22;10274;49.022;9.338;2022-12-05T03:41:41;3.30;99.90
20231;DHT22;10274;49.022;9.338;2022-12-05T03:44:13;3.30;99.90
20231;DHT22;10274;49.022;9.338;2022-12-05T03:46:47;3.30;99.90
20231;DHT22;10274;49.022;9.338;2022-12-05T03:49:19;3.40;99.90
20231;DHT22;10274;49.022;9.338;2022-12-05T03:51:51;3.40;99.90
20231;DHT22;10274;49.022;9.338;2022-12-05T03:54:23;3.40;99.90
20231;DHT22;10274;49.022;9.338;2022-12-05T03:56:54;3.40;99.90
20231;DHT22;10274;49.022;9.338;2022-12-05T03:59:27;3.40;99.90
20231;DHT22;10274;49.022;9.338;2022-12-05T04:01:59;3.30;99.90
20231;DHT22;10274;49.022;9.338;2022-12-05T04:04:32;3.40;99.90
20231;DHT22;10274;49.022;9.338;2022-12-05T04:07:03;3.40;99.90
20231;DHT22;10274;49.022;9.338;2022-12-05T04:09:34;3.40;99.90
20231;DHT22;10274;49.022;9.338;2022-12-05T04:12:05;3.40;99.90
20231;DHT22;10274;49.022;9.338;2022-12-05T04:14:38;3.40;99.90
20231;DHT22;10274;49.022;9.338;2022-12-05T04:17:09;3.40;99.90
20231;DHT22;10274;49.022;9.338;2022-12-05T04:19:40;3.40;99.90
20231;DHT22;10274;49.022;9.338;2022-12-05T04:22:41;3.40;99.90
20231;DHT22;10274;49.022;9.338;2022-12-05T04:25:10;3.40;99.90
20231;DHT22;10274;49.022;9.338;2022-12-05T04:28:00;3.40;99.90
20231;DHT22;10274;49.022;9.338;2022-12-05T04:30:32;3.40;99.90
20231;DHT22;10274;49.022;9.338;2022-12-05T04:33:07;3.50;99.90
20231;DHT22;10274;49.022;9.338;2022-12-05T04:35:40;3.50;99.90
20231;DHT22;10274;49.022;9.338;2022-12-05T04:38:12;3.50;99.90
20231;DHT22;10274;49.022;9.338;2022-12-05T04:40:45;3.50;99.90
20231;DHT22;10274;49.022;9.338;2022-12-05T04:43:14;3.50;99.90
20231;DHT22;10274;49.022;9.338;2022-12-05T04:45:42;3.60;99.90
20231;DHT22;10274;49.022;9.338;2022-12-05T04:48:13;3.50;99.90
20231;DHT22;10274;49.022;9.338;2022-12-05T04:50:41;3.60;99.90
20231;DHT22;10274;49.022;9.338;2022-12-05T04:53:11;3.50;99.90
20231;DHT22;10274;49.022;9.338;2022-12-05T04:55:43;3.50;99.90
20231;DHT22;10274;49.022;9.338;2022-12-05T04:58:13;3.50;99.90
20231;DHT22;10274;49.022;9.338;2022-12-05T05:00:46;3.50;99.90
20231;DHT22;10274;49.022;9.338;2022-12-05T05:03:21;3.50;99.90
20231;DHT22;10274;49.022;9.338;2022-12-05T05:05:53;3.50;99.90
20231;DHT22;10274;49.022;9.338;2022-12-05T05:08:23;3.60;99.90
20231;DHT22;10274;49.022;9.338;2022-12-05T05:10:56;3.50;99.90
20231;DHT22;10274;49.022;9.338;2022-12-05T05:13:26;3.60;99.90
20231;DHT22;10274;49.022;9.338;2022-12-05T05:15:53;3.60;99.90
20231;DHT22;10274;49.022;9.338;2022-12-05T05:18:21;3.50;99.90
20231;DHT22;10274;49.022;9.338;2022-12-05T05:20:48;3.50;99.90
20231;DHT22;10274;49.022;9.338;2022-12-05T05:23:15;3.40;99.90
20231;DHT22;10274;49.022;9.338;2022-12-05T05:25:41;3.40;99.90
20231;DHT22;10274;49.022;9.338;2022-12-05T05:28:08;3.40;99.90
20231;DHT22;10274;49.022;9.338;2022-12-05T05:30:35;3.40;99.90
20231;DHT22;10274;49.022;9.338;2022-12-05T05:33:01;3.40;99.90
20231;DHT22;10274;49.022;9.338;2022-12-05T05:35:30;3.40;99.90
20231;DHT22;10274;49.022;9.338;2022-12-05T05:37:56;3.40;99.90
20231;DHT22;10274;49.022;9.338;2022-12-05T05:40:23;3.40;99.90
20231;DHT22;10274;49.022;9.338;2022-12-05T05:42:50;3.50;99.90
20231;DHT22;10274;49.022;9.338;2022-12-05T05:45:16;3.50;99.90
20231;DHT22;10274;49.022;9.338;2022-12-05T05:47:43;3.50;99.90
20231;DHT22;10274;49.022;9.338;2022-12-05T05:50:11;3.50;99.90
20231;DHT22;10274;49.022;9.338;2022-12-05T05:52:39;3.60;99.90
20231;DHT22;10274;49.022;9.338;2022-12-05T05:55:07;3.60;99.90
20231;DHT22;10274;49.022;9.338;2022-12-05T05:57:34;3.60;99.90
20231;DHT22;10274;49.022;9.338;2022-12-05T06:00:02;3.50;99.90
20231;DHT22;10274;49.022;9.338;2022-12-05T06:02:31;3.50;99.90
20231;DHT22;10274;49.022;9.338;2022-12-05T06:04:58;3.50;99.90
20231;DHT22;10274;49.022;9.338;2022-12-05T06:07:25;3.50;99.90
20231;DHT22;10274;49.022;9.338;2022-12-05T06:09:53;3.50;99.90
20231;DHT22;10274;49.022;9.338;2022-12-05T06:12:20;3.50;99.90
20231;DHT22;10274;49.022;9.338;2022-12-05T06:14:47;3.50;99.90
20231;DHT22;10274;49.022;9.338;2022-12-05T06:17:14;3.50;99.90
20231;DHT22;10274;49.022;9.338;2022-12-05T06:19:41;3.50;99.90
20231;DHT22;10274;49.022;9.338;2022-12-05T06:22:08;3.50;99.90
20231;DHT22;10274;49.022;9.338;2022-12-05T06:24:34;3.50;99.90
20231;DHT22;10274;49.022;9.338;2022-12-05T06:27:03;3.60;99.90
20231;DHT22;10274;49.022;9.338;2022-12-05T06:29:29;3.60;99.90
20231;DHT22;10274;49.022;9.338;2022-12-05T06:31:56;3.60;99.90
20231;DHT22;10274;49.022;9.338;2022-12-05T06:34:23;3.60;99.90
20231;DHT22;10274;49.022;9.338;2022-12-05T06:36:49;3.60;99.40
20231;DHT22;10274;49.022;9.338;2022-12-05T06:39:16;3.60;98.30
20231;DHT22;10274;49.022;9.338;2022-12-05T06:41:43;3.60;99.90
20231;DHT22;10274;49.022;9.338;2022-12-05T06:44:11;3.60;99.90
20231;DHT22;10274;49.022;9.338;2022-12-05T06:46:37;3.60;99.90
20231;DHT22;10274;49.022;9.338;2022-12-05T06:49:04;3.60;99.90
20231;DHT22;10274;49.022;9.338;2022-12-05T06:51:31;3.70;99.90
20231;DHT22;10274;49.022;9.338;2022-12-05T06:53:58;3.70;99.90
20231;DHT22;10274;49.022;9.338;2022-12-05T06:56:24;3.70;99.90
20231;DHT22;10274;49.022;9.338;2022-12-05T06:58:52;3.70;99.90
20231;DHT22;10274;49.022;9.338;2022-12-05T07:01:22;3.70;99.90
20231;DHT22;10274;49.022;9.338;2022-12-05T07:04:04;3.80;99.90
20231;DHT22;10274;49.022;9.338;2022-12-05T07:06:31;3.80;99.90
20231;DHT22;10274;49.022;9.338;2022-12-05T07:08:58;3.80;99.90
20231;DHT22;10274;49.022;9.338;2022-12-05T07:11:25;3.80;99.90
20231;DHT22;10274;49.022;9.338;2022-12-05T07:13:52;3.70;99.90
20231;DHT22;10274;49.022;9.338;2022-12-05T07:16:18;3.70;99.90
20231;DHT22;10274;49.022;9.338;2022-12-05T07:18:46;3.70;99.90
20231;DHT22;10274;49.022;9.338;2022-12-05T07:21:15;3.70;99.90
20231;DHT22;10274;49.022;9.338;2022-12-05T07:23:43;3.70;99.90
20231;DHT22;10274;49.022;9.338;2022-12-05T07:26:12;3.80;99.90
20231;DHT22;10274;49.022;9.338;2022-12-05T07:28:39;3.80;99.90
20231;DHT22;10274;49.022;9.338;2022-12-05T07:31:07;3.80;99.90
20231;DHT22;10274;49.022;9.338;2022-12-05T07:33:34;3.90;99.90
20231;DHT22;10274;49.022;9.338;2022-12-05T07:36:04;3.90;99.90
20231;DHT22;10274;49.022;9.338;2022-12-05T07:38:32;3.90;99.90
20231;DHT22;10274;49.022;9.338;2022-12-05T07:41:02;4.00;99.90
20231;DHT22;10274;49.022;9.338;2022-12-05T07:43:29;3.90;99.90
20231;DHT22;10274;49.022;9.338;2022-12-05T07:46:00;3.90;99.90
20231;DHT22;10274;49.022;9.338;2022-12-05T07:48:27;3.90;99.90
20231;DHT22;10274;49.022;9.338;2022-12-05T07:50:54;3.90;99.90
20231;DHT22;10274;49.022;9.338;2022-12-05T07:53:25;4.00;99.90
20231;DHT22;10274;49.022;9.338;2022-12-05T07:55:52;4.00;99.90
20231;DHT22;10274;49.022;9.338;2022-12-05T07:58:18;4.10;98.70
20231;DHT22;10274;49.022;9.338;2022-12-05T08:00:45;4.10;96.10
20231;DHT22;10274;49.022;9.338;2022-12-05T08:03:12;4.10;91.20
20231;DHT22;10274;49.022;9.338;2022-12-05T08:05:38;4.10;86.70
20231;DHT22;10274;49.022;9.338;2022-12-05T08:08:05;4.10;92.20
20231;DHT22;10274;49.022;9.338;2022-12-05T08:10:35;4.10;89.80
20231;DHT22;10274;49.022;9.338;2022-12-05T08:13:02;4.10;92.00
20231;DHT22;10274;49.022;9.338;2022-12-05T08:15:28;4.10;92.60
20231;DHT22;10274;49.022;9.338;2022-12-05T08:17:55;4.10;93.50
20231;DHT22;10274;49.022;9.338;2022-12-05T08:20:22;4.20;96.10
20231;DHT22;10274;49.022;9.338;2022-12-05T08:22:51;4.20;99.50
20231;DHT22;10274;49.022;9.338;2022-12-05T08:25:19;4.20;88.30
20231;DHT22;10274;49.022;9.338;2022-12-05T08:27:47;4.20;86.80
20231;DHT22;10274;49.022;9.338;2022-12-05T08:30:13;4.20;87.50
20231;DHT22;10274;49.022;9.338;2022-12-05T08:32:40;4.30;86.20
20231;DHT22;10274;49.022;9.338;2022-12-05T08:35:07;4.30;97.20
20231;DHT22;10274;49.022;9.338;2022-12-05T08:37:35;4.30;93.90
20231;DHT22;10274;49.022;9.338;2022-12-05T08:40:02;4.40;97.80
20231;DHT22;10274;49.022;9.338;2022-12-05T08:42:29;4.40;89.30
20231;DHT22;10274;49.022;9.338;2022-12-05T08:44:57;4.50;95.60
20231;DHT22;10274;49.022;9.338;2022-12-05T08:47:24;4.50;99.90
20231;DHT22;10274;49.022;9.338;2022-12-05T08:49:51;4.50;99.90
20231;DHT22;10274;49.022;9.338;2022-12-05T08:52:17;4.60;97.00
20231;DHT22;10274;49.022;9.338;2022-12-05T08:54:44;4.60;93.40
20231;DHT22;10274;49.022;9.338;2022-12-05T08:57:11;4.60;92.60
20231;DHT22;10274;49.022;9.338;2022-12-05T08:59:37;4.60;92.50
20231;DHT22;10274;49.022;9.338;2022-12-05T09:02:06;4.60;76.10
20231;DHT22;10274;49.022;9.338;2022-12-05T09:04:33;4.60;91.70
20231;DHT22;10274;49.022;9.338;2022-12-05T09:07:00;4.60;92.90
20231;DHT22;10274;49.022;9.338;2022-12-05T09:09:28;4.60;90.20
20231;DHT22;10274;49.022;9.338;2022-12-05T09:11:54;4.60;74.60
20231;DHT22;10274;49.022;9.338;2022-12-05T09:14:22;4.70;90.50
20231;DHT22;10274;49.022;9.338;2022-12-05T09:16:49;4.70;93.30
20231;DHT22;10274;49.022;9.338;2022-12-05T09:19:18;4.70;91.20
20231;DHT22;10274;49.022;9.338;2022-12-05T09:21:46;4.70;91.30
20231;DHT22;10274;49.022;9.338;2022-12-05T09:24:13;4.80;90.10
20231;DHT22;10274;49.022;9.338;2022-12-05T09:26:40;4.70;92.10
20231;DHT22;10274;49.022;9.338;2022-12-05T09:29:07;4.80;90.90
20231;DHT22;10274;49.022;9.338;2022-12-05T09:31:34;4.90;99.70
20231;DHT22;10274;49.022;9.338;2022-12-05T09:34:01;5.00;93.10
20231;DHT22;10274;49.022;9.338;2022-12-05T09:36:30;4.90;93.20
20231;DHT22;10274;49.022;9.338;2022-12-05T09:39:00;5.00;86.60
20231;DHT22;10274;49.022;9.338;2022-12-05T09:41:57;5.00;93.10
20231;DHT22;10274;49.022;9.338;2022-12-05T09:44:41;4.90;74.00
20231;DHT22;10274;49.022;9.338;2022-12-05T09:47:16;5.00;83.60
20231;DHT22;10274;49.022;9.338;2022-12-05T09:49:49;5.10;96.70
20231;DHT22;10274;49.022;9.338;2022-12-05T09:52:23;5.00;99.90
20231;DHT22;10274;49.022;9.338;2022-12-05T09:54:51;5.10;85.20
20231;DHT22;10274;49.022;9.338;2022-12-05T09:57:20;5.00;79.20
20231;DHT22;10274;49.022;9.338;2022-12-05T09:59:49;5.00;75.70
20231;DHT22;10274;49.022;9.338;2022-12-05T10:02:22;5.00;57.70
20231;DHT22;10274;49.022;9.338;2022-12-05T10:04:54;5.00;71.50
20231;DHT22;10274;49.022;9.338;2022-12-05T10:07:30;4.90;51.40
20231;DHT22;10274;49.022;9.338;2022-12-05T10:10:13;5.00;63.50
20231;DHT22;10274;49.022;9.338;2022-12-05T10:12:56;5.00;70.00
20231;DHT22;10274;49.022;9.338;2022-12-05T10:15:31;4.90;82.80
20231;DHT22;10274;49.022;9.338;2022-12-05T10:18:01;4.90;93.00
20231;DHT22;10274;49.022;9.338;2022-12-05T10:20:32;4.90;94.30
20231;DHT22;10274;49.022;9.338;2022-12-05T10:23:03;5.00;99.90
20231;DHT22;10274;49.022;9.338;2022-12-05T10:25:32;5.00;94.30
20231;DHT22;10274;49.022;9.338;2022-12-05T10:28:05;5.10;99.10
20231;DHT22;10274;49.022;9.338;2022-12-05T10:30:36;5.10;99.90
20231;DHT22;10274;49.022;9.338;2022-12-05T10:33:13;5.10;99.40
20231;DHT22;10274;49.022;9.338;2022-12-05T10:35:41;5.20;99.90
20231;DHT22;10274;49.022;9.338;2022-12-05T10:38:13;5.10;99.90
20231;DHT22;10274;49.022;9.338;2022-12-05T10:40:43;5.20;99.90
20231;DHT22;10274;49.022;9.338;2022-12-05T10:43:13;5.20;96.50
20231;DHT22;10274;49.022;9.338;2022-12-05T10:45:43;5.40;99.90
20231;DHT22;10274;49.022;9.338;2022-12-05T10:48:12;5.40;99.90
20231;DHT22;10274;49.022;9.338;2022-12-05T10:50:39;5.40;91.70
20231;DHT22;10274;49.022;9.338;2022-12-05T10:53:14;5.40;98.60
20231;DHT22;10274;49.022;9.338;2022-12-05T10:55:43;5.40;99.90
20231;DHT22;10274;49.022;9.338;2022-12-05T10:58:13;5.30;99.90
20231;DHT22;10274;49.022;9.338;2022-12-05T11:00:41;5.20;99.90
20231;DHT22;10274;49.022;9.338;2022-12-05T11:03:26;5.30;99.90
20231;DHT22;10274;49.022;9.338;2022-12-05T11:05:55;5.30;99.90
20231;DHT22;10274;49.022;9.338;2022-12-05T11:08:26;5.30;99.90
20231;DHT22;10274;49.022;9.338;2022-12-05T11:11:04;5.30;99.90
20231;DHT22;10274;49.022;9.338;2022-12-05T11:13:33;5.20;99.90
20231;DHT22;10274;49.022;9.338;2022-12-05T11:16:00;5.20;99.90
20231;DHT22;10274;49.022;9.338;2022-12-05T11:18:29;5.30;99.90
20231;DHT22;10274;49.022;9.338;2022-12-05T11:21:08;5.30;99.90
20231;DHT22;10274;49.022;9.338;2022-12-05T11:23:37;5.30;99.90
20231;DHT22;10274;49.022;9.338;2022-12-05T11:26:15;5.40;99.90
20231;DHT22;10274;49.022;9.338;2022-12-05T11:28:43;5.40;99.90
20231;DHT22;10274;49.022;9.338;2022-12-05T11:31:21;5.40;99.90
20231;DHT22;10274;49.022;9.338;2022-12-05T11:34:13;5.40;99.90
20231;DHT22;10274;49.022;9.338;2022-12-05T11:36:45;5.50;99.90
20231;DHT22;10274;49.022;9.338;2022-12-05T11:39:15;5.60;99.90
20231;DHT22;10274;49.022;9.338;2022-12-05T11:41:59;5.60;99.90
20231;DHT22;10274;49.022;9.338;2022-12-05T11:44:46;5.60;99.90
20231;DHT22;10274;49.022;9.338;2022-12-05T11:47:23;5.60;99.90
20231;DHT22;10274;49.022;9.338;2022-12-05T11:50:06;5.70;99.90
20231;DHT22;10274;49.022;9.338;2022-12-05T11:52:49;5.70;99.90
20231;DHT22;10274;49.022;9.338;2022-12-05T11:55:22;5.80;99.90
20231;DHT22;10274;49.022;9.338;2022-12-05T11:58:07;5.80;99.90
20231;DHT22;10274;49.022;9.338;2022-12-05T12:00:44;5.80;99.90
20231;DHT22;10274;49.022;9.338;2022-12-05T12:03:40;5.80;99.90
20231;DHT22;10274;49.022;9.338;2022-12-05T12:06:18;5.90;99.90
20231;DHT22;10274;49.022;9.338;2022-12-05T12:09:01;5.90;99.90
20231;DHT22;10274;49.022;9.338;2022-12-05T12:11:41;5.60;99.90
20231;DHT22;10274;49.022;9.338;2022-12-05T12:14:13;5.70;99.90
20231;DHT22;10274;49.022;9.338;2022-12-05T12:16:50;5.80;99.90
20231;DHT22;10274;49.022;9.338;2022-12-05T12:19:37;5.90;99.90
20231;DHT22;10274;49.022;9.338;2022-12-05T12:22:23;5.90;99.90
20231;DHT22;10274;49.022;9.338;2022-12-05T12:25:10;5.90;99.90
20231;DHT22;10274;49.022;9.338;2022-12-05T12:27:51;5.90;99.90
20231;DHT22;10274;49.022;9.338;2022-12-05T12:30:25;6.00;99.90
20231;DHT22;10274;49.022;9.338;2022-12-05T12:32:59;5.90;99.90
20231;DHT22;10274;49.022;9.338;2022-12-05T12:35:29;6.00;99.90
20231;DHT22;10274;49.022;9.338;2022-12-05T12:38:24;5.90;99.90
20231;DHT22;10274;49.022;9.338;2022-12-05T12:40:57;5.90;99.90
20231;DHT22;10274;49.022;9.338;2022-12-05T12:43:39;5.90;99.90
20231;DHT22;10274;49.022;9.338;2022-12-05T12:46:18;5.80;99.90
20231;DHT22;10274;49.022;9.338;2022-12-05T12:49:06;5.80;99.90
20231;DHT22;10274;49.022;9.338;2022-12-05T12:51:38;5.80;99.90
20231;DHT22;10274;49.022;9.338;2022-12-05T12:57:06;5.70;99.90
20231;DHT22;10274;49.022;9.338;2022-12-05T12:59:46;5.80;69.40
20231;DHT22;10274;49.022;9.338;2022-12-05T13:02:18;5.90;81.20
20231;DHT22;10274;49.022;9.338;2022-12-05T13:04:50;5.90;99.00
20231;DHT22;10274;49.022;9.338;2022-12-05T13:07:23;5.90;74.70
20231;DHT22;10274;49.022;9.338;2022-12-05T13:09:54;5.90;53.70
20231;DHT22;10274;49.022;9.338;2022-12-05T13:12:25;5.80;36.70
20231;DHT22;10274;49.022;9.338;2022-12-05T13:14:57;5.80;42.90
20231;DHT22;10274;49.022;9.338;2022-12-05T13:17:26;6.00;75.90
20231;DHT22;10274;49.022;9.338;2022-12-05T13:19:53;6.00;78.30
20231;DHT22;10274;49.022;9.338;2022-12-05T13:22:23;6.00;90.60
20231;DHT22;10274;49.022;9.338;2022-12-05T13:24:51;6.00;91.60
20231;DHT22;10274;49.022;9.338;2022-12-05T13:27:20;6.00;85.30
20231;DHT22;10274;49.022;9.338;2022-12-05T13:29:50;5.90;86.80
20231;DHT22;10274;49.022;9.338;2022-12-05T13:32:28;5.90;66.50
20231;DHT22;10274;49.022;9.338;2022-12-05T13:34:56;5.90;61.40
20231;DHT22;10274;49.022;9.338;2022-12-05T13:37:25;5.90;95.80
20231;DHT22;10274;49.022;9.338;2022-12-05T13:40:28;6.00;99.90
20231;DHT22;10274;49.022;9.338;2022-12-05T13:43:15;6.00;99.90
20231;DHT22;10274;49.022;9.338;2022-12-05T13:45:58;5.90;99.90
20231;DHT22;10274;49.022;9.338;2022-12-05T13:48:29;5.90;99.90
20231;DHT22;10274;49.022;9.338;2022-12-05T13:51:02;5.90;99.90
20231;DHT22;10274;49.022;9.338;2022-12-05T13:53:35;5.80;99.90
20231;DHT22;10274;49.022;9.338;2022-12-05T13:56:05;5.80;99.90
20231;DHT22;10274;49.022;9.338;2022-12-05T13:58:41;5.80;99.90
20231;DHT22;10274;49.022;9.338;2022-12-05T14:01:43;5.80;99.90
20231;DHT22;10274;49.022;9.338;2022-12-05T14:07:07;5.80;99.90
20231;DHT22;10274;49.022;9.338;2022-12-05T14:09:49;5.80;99.90
20231;DHT22;10274;49.022;9.338;2022-12-05T14:12:45;5.70;99.90
20231;DHT22;10274;49.022;9.338;2022-12-05T14:15:33;5.70;99.90
20231;DHT22;10274;49.022;9.338;2022-12-05T14:18:08;5.80;99.90
20231;DHT22;10274;49.022;9.338;2022-12-05T14:20:47;5.70;99.90
20231;DHT22;10274;49.022;9.338;2022-12-05T14:26:14;5.60;99.90
20231;DHT22;10274;49.022;9.338;2022-12-05T14:29:03;5.70;99.90
20231;DHT22;10274;49.022;9.338;2022-12-05T14:31:48;5.60;99.90
20231;DHT22;10274;49.022;9.338;2022-12-05T14:34:22;5.60;99.90
20231;DHT22;10274;49.022;9.338;2022-12-05T14:36:57;5.60;99.90
20231;DHT22;10274;49.022;9.338;2022-12-05T14:39:34;5.60;99.90
20231;DHT22;10274;49.022;9.338;2022-12-05T14:42:04;5.60;99.90
20231;DHT22;10274;49.022;9.338;2022-12-05T14:44:33;5.50;99.90
20231;DHT22;10274;49.022;9.338;2022-12-05T14:47:00;5.50;99.90
20231;DHT22;10274;49.022;9.338;2022-12-05T14:49:50;5.50;99.90
20231;DHT22;10274;49.022;9.338;2022-12-05T14:52:21;5.40;99.90
20231;DHT22;10274;49.022;9.338;2022-12-05T14:54:50;5.40;99.90
20231;DHT22;10274;49.022;9.338;2022-12-05T14:57:18;5.40;99.90
20231;DHT22;10274;49.022;9.338;2022-12-05T14:59:50;5.50;99.90
20231;DHT22;10274;49.022;9.338;2022-12-05T15:02:21;5.50;99.90
20231;DHT22;10274;49.022;9.338;2022-12-05T15:04:55;5.50;99.90
20231;DHT22;10274;49.022;9.338;2022-12-05T15:07:30;5.40;99.90
20231;DHT22;10274;49.022;9.338;2022-12-05T15:10:00;5.40;99.90
20231;DHT22;10274;49.022;9.338;2022-12-05T15:12:32;5.40;99.90
20231;DHT22;10274;49.022;9.338;2022-12-05T15:15:12;5.40;99.90
20231;DHT22;10274;49.022;9.338;2022-12-05T15:17:45;5.40;99.90
20231;DHT22;10274;49.022;9.338;2022-12-05T15:20:19;5.40;99.90
20231;DHT22;10274;49.022;9.338;2022-12-05T15:22:49;5.30;99.90
20231;DHT22;10274;49.022;9.338;2022-12-05T15:25:28;5.30;99.90
20231;DHT22;10274;49.022;9.338;2022-12-05T15:27:57;5.30;99.90
20231;DHT22;10274;49.022;9.338;2022-12-05T15:30:25;5.30;99.90
20231;DHT22;10274;49.022;9.338;2022-12-05T15:32:53;5.40;99.90
20231;DHT22;10274;49.022;9.338;2022-12-05T15:35:22;5.40;99.90
20231;DHT22;10274;49.022;9.338;2022-12-05T15:37:54;5.40;99.90
20231;DHT22;10274;49.022;9.338;2022-12-05T15:40:23;5.30;99.90
20231;DHT22;10274;49.022;9.338;2022-12-05T15:42:52;5.30;99.90
20231;DHT22;10274;49.022;9.338;2022-12-05T15:45:22;5.30;99.90
20231;DHT22;10274;49.022;9.338;2022-12-05T15:47:52;5.30;99.90
20231;DHT22;10274;49.022;9.338;2022-12-05T15:50:26;5.30;99.90
20231;DHT22;10274;49.022;9.338;2022-12-05T15:52:56;5.20;99.90
20231;DHT22;10274;49.022;9.338;2022-12-05T15:55:28;5.10;99.90
20231;DHT22;10274;49.022;9.338;2022-12-05T15:57:59;5.20;99.90
20231;DHT22;10274;49.022;9.338;2022-12-05T16:00:28;5.10;99.90
20231;DHT22;10274;49.022;9.338;2022-12-05T16:02:58;5.10;99.90
20231;DHT22;10274;49.022;9.338;2022-12-05T16:05:31;5.10;99.90
20231;DHT22;10274;49.022;9.338;2022-12-05T16:08:02;5.10;99.90
20231;DHT22;10274;49.022;9.338;2022-12-05T16:10:30;5.10;99.90
20231;DHT22;10274;49.022;9.338;2022-12-05T16:13:02;5.20;99.90
20231;DHT22;10274;49.022;9.338;2022-12-05T16:15:30;5.10;99.90
20231;DHT22;10274;49.022;9.338;2022-12-05T16:17:58;5.10;99.90
20231;DHT22;10274;49.022;9.338;2022-12-05T16:20:30;5.10;99.90